sensor_id;sensor_type;location;lat;lon;timestamp;pressure;altitude;pressure_sealevel;temperature;humidity
18201;BME280;9226;47.858;9.594;2022-12-18T00:01:18;96114.69;;;-3.31;77.45
18201;BME280;9226;47.858;9.594;2022-12-18T00:03:44;96116.50;;;-3.36;77.08
18201;BME280;9226;47.858;9.594;2022-12-18T00:06:10;96113.09;;;-3.38;77.50
18201;BME280;9226;47.858;9.594;2022-12-18T00:08:36;96116.41;;;-3.30;77.07
18201;BME280;9226;47.858;9.594;2022-12-18T00:11:11;96118.09;;;-3.29;76.93
18201;BME280;9226;47.858;9.594;2022-12-18T00:13:37;96123.25;;;-3.26;77.13
18201;BME280;9226;47.858;9.594;2022-12-18T00:16:04;96121.59;;;-3.30;77.00
18201;BME280;9226;47.858;9.594;2022-12-18T00:18:30;96124.22;;;-3.32;77.16
18201;BME280;9226;47.858;9.594;2022-12-18T00:20:59;96121.22;;;-3.63;77.67
18201;BME280;9226;47.858;9.594;2022-12-18T00:23:25;96126.16;;;-4.08;78.53
18201;BME280;9226;47.858;9.594;2022-12-18T00:25:52;96125.16;;;-3.96;79.14
18201;BME280;9226;47.858;9.594;2022-12-18T00:28:18;96130.38;;;-3.98;78.95
18201;BME280;9226;47.858;9.594;2022-12-18T00:30:43;96128.03;;;-4.20;80.18
18201;BME280;9226;47.858;9.594;2022-12-18T00:33:09;96134.97;;;-4.22;80.46
18201;BME280;9226;47.858;9.594;2022-12-18T00:35:34;96136.88;;;-4.34;80.71
18201;BME280;9226;47.858;9.594;2022-12-18T00:38:00;96141.78;;;-4.14;80.40
18201;BME280;9226;47.858;9.594;2022-12-18T00:40:25;96140.78;;;-4.01;80.23
18201;BME280;9226;47.858;9.594;2022-12-18T00:42:50;96140.72;;;-3.98;80.12
18201;BME280;9226;47.858;9.594;2022-12-18T00:45:27;96136.38;;;-3.96;80.08
18201;BME280;9226;47.858;9.594;2022-12-18T00:47:53;96148.47;;;-3.95;79.77
18201;BME280;9226;47.858;9.594;2022-12-18T00:50:19;96156.13;;;-3.84;79.56
18201;BME280;9226;47.858;9.594;2022-12-18T00:52:44;96156.13;;;-3.84;79.58
18201;BME280;9226;47.858;9.594;2022-12-18T00:55:10;96147.31;;;-3.74;79.05
18201;BME280;9226;47.858;9.594;2022-12-18T00:57:39;96159.47;;;-3.77;79.21
18201;BME280;9226;47.858;9.594;2022-12-18T01:00:07;96155.22;;;-3.85;78.97
18201;BME280;9226;47.858;9.594;2022-12-18T01:02:33;96150.31;;;-4.03;79.28
18201;BME280;9226;47.858;9.594;2022-12-18T01:04:58;96144.13;;;-3.93;79.12
18201;BME280;9226;47.858;9.594;2022-12-18T01:07:24;96153.69;;;-3.98;79.06
18201;BME280;9226;47.858;9.594;2022-12-18T01:09:49;96149.41;;;-4.01;79.50
18201;BME280;9226;47.858;9.594;2022-12-18T01:12:15;96145.13;;;-4.03;80.15
18201;BME280;9226;47.858;9.594;2022-12-18T01:14:40;96154.59;;;-4.02;79.96
18201;BME280;9226;47.858;9.594;2022-12-18T01:17:05;96162.94;;;-3.80;79.51
18201;BME280;9226;47.858;9.594;2022-12-18T01:19:31;96168.00;;;-3.69;79.15
18201;BME280;9226;47.858;9.594;2022-12-18T01:21:57;96173.22;;;-3.72;79.03
18201;BME280;9226;47.858;9.594;2022-12-18T01:24:22;96176.53;;;-3.63;78.56
18201;BME280;9226;47.858;9.594;2022-12-18T01:26:48;96191.25;;;-3.61;78.42
18201;BME280;9226;47.858;9.594;2022-12-18T01:29:13;96190.59;;;-3.77;78.68
18201;BME280;9226;47.858;9.594;2022-12-18T01:31:38;96182.25;;;-4.03;79.19
18201;BME280;9226;47.858;9.594;2022-12-18T01:34:05;96188.03;;;-3.80;78.76
18201;BME280;9226;47.858;9.594;2022-12-18T01:36:33;96183.53;;;-3.68;78.40
18201;BME280;9226;47.858;9.594;2022-12-18T01:39:00;96181.81;;;-3.69;78.76
18201;BME280;9226;47.858;9.594;2022-12-18T01:41:28;96182.88;;;-3.84;78.91
18201;BME280;9226;47.858;9.594;2022-12-18T01:50:24;96184.50;;;-3.76;78.13
18201;BME280;9226;47.858;9.594;2022-12-18T01:53:02;96182.78;;;-3.74;78.27
18201;BME280;9226;47.858;9.594;2022-12-18T01:55:31;96200.84;;;-3.68;78.61
18201;BME280;9226;47.858;9.594;2022-12-18T01:57:59;96198.28;;;-3.71;78.95
18201;BME280;9226;47.858;9.594;2022-12-18T02:00:26;96195.47;;;-3.56;78.53
18201;BME280;9226;47.858;9.594;2022-12-18T02:02:52;96187.69;;;-3.56;78.62
18201;BME280;9226;47.858;9.594;2022-12-18T02:05:24;96201.69;;;-3.66;78.28
18201;BME280;9226;47.858;9.594;2022-12-18T02:13:29;96201.63;;;-3.61;77.98
18201;BME280;9226;47.858;9.594;2022-12-18T02:16:06;96211.13;;;-3.60;78.12
18201;BME280;9226;47.858;9.594;2022-12-18T02:18:41;96201.63;;;-3.63;77.85
18201;BME280;9226;47.858;9.594;2022-12-18T02:26:47;96191.50;;;-3.82;78.03
18201;BME280;9226;47.858;9.594;2022-12-18T02:29:21;96192.44;;;-3.86;78.01
18201;BME280;9226;47.858;9.594;2022-12-18T02:31:56;96188.22;;;-3.96;78.37
18201;BME280;9226;47.858;9.594;2022-12-18T02:34:35;96187.47;;;-4.06;78.62
18201;BME280;9226;47.858;9.594;2022-12-18T02:37:04;96182.06;;;-3.86;77.85
18201;BME280;9226;47.858;9.594;2022-12-18T02:39:34;96187.13;;;-3.78;77.42
18201;BME280;9226;47.858;9.594;2022-12-18T02:42:01;96183.16;;;-4.05;78.42
18201;BME280;9226;47.858;9.594;2022-12-18T02:44:33;96193.53;;;-4.08;79.08
18201;BME280;9226;47.858;9.594;2022-12-18T02:46:59;96199.59;;;-4.08;78.98
18201;BME280;9226;47.858;9.594;2022-12-18T02:49:49;96201.50;;;-4.22;79.27
18201;BME280;9226;47.858;9.594;2022-12-18T02:52:31;96200.69;;;-4.29;79.93
18201;BME280;9226;47.858;9.594;2022-12-18T02:57:54;96197.06;;;-4.11;79.34
18201;BME280;9226;47.858;9.594;2022-12-18T03:00:23;96198.72;;;-4.07;79.55
18201;BME280;9226;47.858;9.594;2022-12-18T03:03:06;96197.97;;;-4.16;79.38
18201;BME280;9226;47.858;9.594;2022-12-18T03:05:43;96195.44;;;-4.23;79.94
18201;BME280;9226;47.858;9.594;2022-12-18T03:08:16;96193.72;;;-4.22;79.91
18201;BME280;9226;47.858;9.594;2022-12-18T03:10:58;96198.75;;;-4.11;79.74
18201;BME280;9226;47.858;9.594;2022-12-18T03:13:51;96197.09;;;-4.14;79.77
18201;BME280;9226;47.858;9.594;2022-12-18T03:16:25;96194.50;;;-4.15;79.40
18201;BME280;9226;47.858;9.594;2022-12-18T03:18:57;96199.06;;;-4.36;79.71
18201;BME280;9226;47.858;9.594;2022-12-18T03:21:37;96203.22;;;-4.23;79.27
18201;BME280;9226;47.858;9.594;2022-12-18T03:24:06;96206.59;;;-4.16;79.57
18201;BME280;9226;47.858;9.594;2022-12-18T03:26:34;96202.41;;;-4.26;79.51
18201;BME280;9226;47.858;9.594;2022-12-18T03:29:05;96203.94;;;-4.11;78.92
18201;BME280;9226;47.858;9.594;2022-12-18T03:31:37;96207.38;;;-4.06;78.73
18201;BME280;9226;47.858;9.594;2022-12-18T03:34:09;96199.75;;;-4.20;79.63
18201;BME280;9226;47.858;9.594;2022-12-18T03:36:38;96207.66;;;-4.34;79.93
18201;BME280;9226;47.858;9.594;2022-12-18T03:39:04;96204.22;;;-4.33;80.35
18201;BME280;9226;47.858;9.594;2022-12-18T03:41:39;96204.84;;;-4.12;79.55
18201;BME280;9226;47.858;9.594;2022-12-18T03:44:12;96202.31;;;-4.19;79.76
18201;BME280;9226;47.858;9.594;2022-12-18T03:49:26;96216.09;;;-4.16;79.97
18201;BME280;9226;47.858;9.594;2022-12-18T03:52:01;96217.81;;;-4.12;79.20
18201;BME280;9226;47.858;9.594;2022-12-18T03:54:30;96216.22;;;-4.29;79.90
18201;BME280;9226;47.858;9.594;2022-12-18T03:57:04;96221.28;;;-4.16;80.49
18201;BME280;9226;47.858;9.594;2022-12-18T03:59:32;96221.97;;;-4.01;79.63
18201;BME280;9226;47.858;9.594;2022-12-18T04:01:59;96223.06;;;-4.20;79.54
18201;BME280;9226;47.858;9.594;2022-12-18T04:04:27;96224.00;;;-4.27;79.82
18201;BME280;9226;47.858;9.594;2022-12-18T04:06:53;96224.81;;;-4.22;80.11
18201;BME280;9226;47.858;9.594;2022-12-18T04:09:20;96223.03;;;-4.17;80.33
18201;BME280;9226;47.858;9.594;2022-12-18T04:11:47;96214.47;;;-4.24;79.86
18201;BME280;9226;47.858;9.594;2022-12-18T04:14:13;96217.00;;;-4.21;79.94
18201;BME280;9226;47.858;9.594;2022-12-18T04:16:39;96223.94;;;-4.21;80.27
18201;BME280;9226;47.858;9.594;2022-12-18T04:19:05;96221.25;;;-4.12;79.90
18201;BME280;9226;47.858;9.594;2022-12-18T04:21:30;96228.13;;;-4.09;79.69
18201;BME280;9226;47.858;9.594;2022-12-18T04:23:56;96217.06;;;-4.22;79.58
18201;BME280;9226;47.858;9.594;2022-12-18T04:26:21;96223.88;;;-4.16;79.55
18201;BME280;9226;47.858;9.594;2022-12-18T04:28:47;96223.81;;;-4.10;79.06
18201;BME280;9226;47.858;9.594;2022-12-18T04:31:12;96230.75;;;-4.11;79.20
18201;BME280;9226;47.858;9.594;2022-12-18T04:33:38;96233.38;;;-4.14;78.94
18201;BME280;9226;47.858;9.594;2022-12-18T04:36:04;96232.66;;;-4.27;78.97
18201;BME280;9226;47.858;9.594;2022-12-18T04:38:29;96231.00;;;-4.36;79.89
18201;BME280;9226;47.858;9.594;2022-12-18T04:40:54;96233.34;;;-4.12;79.37
18201;BME280;9226;47.858;9.594;2022-12-18T04:43:20;96235.03;;;-4.10;79.38
18201;BME280;9226;47.858;9.594;2022-12-18T04:45:45;96238.69;;;-4.26;79.83
18201;BME280;9226;47.858;9.594;2022-12-18T04:48:11;96235.25;;;-4.30;79.92
18201;BME280;9226;47.858;9.594;2022-12-18T04:50:36;96245.66;;;-4.33;79.72
18201;BME280;9226;47.858;9.594;2022-12-18T04:53:02;96247.34;;;-4.32;79.51
18201;BME280;9226;47.858;9.594;2022-12-18T04:55:27;96246.56;;;-4.37;79.62
18201;BME280;9226;47.858;9.594;2022-12-18T04:57:53;96242.34;;;-4.46;80.15
18201;BME280;9226;47.858;9.594;2022-12-18T05:00:19;96256.22;;;-4.55;80.13
18201;BME280;9226;47.858;9.594;2022-12-18T05:02:44;96257.03;;;-4.52;80.52
18201;BME280;9226;47.858;9.594;2022-12-18T05:05:10;96257.88;;;-4.44;80.12
18201;BME280;9226;47.858;9.594;2022-12-18T05:07:35;96255.28;;;-4.47;80.15
18201;BME280;9226;47.858;9.594;2022-12-18T05:10:01;96257.94;;;-4.53;80.53
18201;BME280;9226;47.858;9.594;2022-12-18T05:12:26;96257.91;;;-4.50;80.61
18201;BME280;9226;47.858;9.594;2022-12-18T05:14:52;96264.84;;;-4.56;80.92
18201;BME280;9226;47.858;9.594;2022-12-18T05:17:17;96270.88;;;-4.50;80.42
18201;BME280;9226;47.858;9.594;2022-12-18T05:19:43;96273.47;;;-4.53;80.61
18201;BME280;9226;47.858;9.594;2022-12-18T05:22:09;96266.53;;;-4.48;80.45
18201;BME280;9226;47.858;9.594;2022-12-18T05:24:35;96273.56;;;-4.66;80.84
18201;BME280;9226;47.858;9.594;2022-12-18T05:27:00;96268.41;;;-4.66;81.13
18201;BME280;9226;47.858;9.594;2022-12-18T05:29:26;96264.88;;;-4.59;80.87
18201;BME280;9226;47.858;9.594;2022-12-18T05:31:51;96270.03;;;-4.59;80.78
18201;BME280;9226;47.858;9.594;2022-12-18T05:34:17;96277.00;;;-4.62;80.95
18201;BME280;9226;47.858;9.594;2022-12-18T05:36:42;96271.06;;;-4.75;81.16
18201;BME280;9226;47.858;9.594;2022-12-18T05:39:08;96278.72;;;-4.63;80.91
18201;BME280;9226;47.858;9.594;2022-12-18T05:41:33;96274.44;;;-4.67;80.75
18201;BME280;9226;47.858;9.594;2022-12-18T05:43:59;96282.16;;;-4.59;80.94
18201;BME280;9226;47.858;9.594;2022-12-18T05:46:25;96273.34;;;-4.41;80.03
18201;BME280;9226;47.858;9.594;2022-12-18T05:48:51;96270.75;;;-4.41;79.98
18201;BME280;9226;47.858;9.594;2022-12-18T05:51:19;96274.97;;;-4.28;79.29
18201;BME280;9226;47.858;9.594;2022-12-18T05:53:45;96273.22;;;-4.29;79.28
18201;BME280;9226;47.858;9.594;2022-12-18T05:56:17;96275.03;;;-4.34;79.39
18201;BME280;9226;47.858;9.594;2022-12-18T05:58:43;96278.34;;;-4.20;78.83
18201;BME280;9226;47.858;9.594;2022-12-18T06:01:15;96275.97;;;-4.43;79.15
18201;BME280;9226;47.858;9.594;2022-12-18T06:03:40;96280.16;;;-4.31;78.92
18201;BME280;9226;47.858;9.594;2022-12-18T06:06:19;96286.25;;;-4.37;78.98
18201;BME280;9226;47.858;9.594;2022-12-18T06:08:45;96283.59;;;-4.29;78.80
18201;BME280;9226;47.858;9.594;2022-12-18T06:11:11;96282.78;;;-4.34;79.04
18201;BME280;9226;47.858;9.594;2022-12-18T06:13:37;96278.66;;;-4.52;79.14
18201;BME280;9226;47.858;9.594;2022-12-18T06:16:04;96278.72;;;-4.63;79.68
18201;BME280;9226;47.858;9.594;2022-12-18T06:18:29;96289.09;;;-4.63;79.34
18201;BME280;9226;47.858;9.594;2022-12-18T06:20:56;96289.97;;;-4.65;79.59
18201;BME280;9226;47.858;9.594;2022-12-18T06:23:22;96297.72;;;-4.64;79.40
18201;BME280;9226;47.858;9.594;2022-12-18T06:25:47;96296.91;;;-4.70;79.41
18201;BME280;9226;47.858;9.594;2022-12-18T06:28:12;96301.34;;;-4.83;80.05
18201;BME280;9226;47.858;9.594;2022-12-18T06:30:38;96300.34;;;-4.70;79.77
18201;BME280;9226;47.858;9.594;2022-12-18T06:33:03;96300.41;;;-4.76;79.83
18201;BME280;9226;47.858;9.594;2022-12-18T06:35:29;96296.03;;;-4.68;79.52
18201;BME280;9226;47.858;9.594;2022-12-18T06:37:54;96296.03;;;-4.65;79.60
18201;BME280;9226;47.858;9.594;2022-12-18T06:40:20;96295.19;;;-4.72;79.63
18201;BME280;9226;47.858;9.594;2022-12-18T06:42:45;96293.47;;;-4.68;79.62
18201;BME280;9226;47.858;9.594;2022-12-18T06:45:11;96296.94;;;-4.75;79.92
18201;BME280;9226;47.858;9.594;2022-12-18T06:47:36;96296.81;;;-4.58;79.32
18201;BME280;9226;47.858;9.594;2022-12-18T06:50:02;96307.19;;;-4.58;79.33
18201;BME280;9226;47.858;9.594;2022-12-18T06:52:27;96307.25;;;-4.67;79.43
18201;BME280;9226;47.858;9.594;2022-12-18T06:54:53;96313.19;;;-4.53;78.87
18201;BME280;9226;47.858;9.594;2022-12-18T06:57:18;96310.66;;;-4.62;79.02
18201;BME280;9226;47.858;9.594;2022-12-18T06:59:44;96320.19;;;-4.66;79.12
18201;BME280;9226;47.858;9.594;2022-12-18T07:02:12;96320.22;;;-4.69;78.87
18201;BME280;9226;47.858;9.594;2022-12-18T07:04:38;96330.53;;;-4.66;79.06
18201;BME280;9226;47.858;9.594;2022-12-18T07:07:03;96331.38;;;-4.62;79.06
18201;BME280;9226;47.858;9.594;2022-12-18T07:09:28;96332.31;;;-4.71;79.21
18201;BME280;9226;47.858;9.594;2022-12-18T07:11:54;96343.53;;;-4.74;79.85
18201;BME280;9226;47.858;9.594;2022-12-18T07:14:19;96345.31;;;-4.80;79.52
18201;BME280;9226;47.858;9.594;2022-12-18T07:16:45;96346.22;;;-4.89;79.49
18201;BME280;9226;47.858;9.594;2022-12-18T07:19:10;96341.81;;;-4.73;79.29
18201;BME280;9226;47.858;9.594;2022-12-18T07:21:35;96347.88;;;-4.77;79.77
18201;BME280;9226;47.858;9.594;2022-12-18T07:24:01;96349.59;;;-4.76;79.53
18201;BME280;9226;47.858;9.594;2022-12-18T07:26:26;96348.75;;;-4.80;79.66
18201;BME280;9226;47.858;9.594;2022-12-18T07:28:55;96354.81;;;-4.82;79.51
18201;BME280;9226;47.858;9.594;2022-12-18T07:31:21;96357.34;;;-4.73;79.37
18201;BME280;9226;47.858;9.594;2022-12-18T07:33:47;96359.84;;;-4.61;78.84
18201;BME280;9226;47.858;9.594;2022-12-18T07:36:13;96363.44;;;-4.77;79.81
18201;BME280;9226;47.858;9.594;2022-12-18T07:38:39;96373.66;;;-4.62;79.04
18201;BME280;9226;47.858;9.594;2022-12-18T07:41:07;96365.03;;;-4.61;79.18
18201;BME280;9226;47.858;9.594;2022-12-18T07:43:33;96368.53;;;-4.68;79.42
18201;BME280;9226;47.858;9.594;2022-12-18T07:45:59;96370.22;;;-4.64;79.51
18201;BME280;9226;47.858;9.594;2022-12-18T07:48:25;96370.16;;;-4.55;79.31
18201;BME280;9226;47.858;9.594;2022-12-18T07:50:50;96370.94;;;-4.43;78.97
18201;BME280;9226;47.858;9.594;2022-12-18T07:53:16;96376.94;;;-4.38;79.41
18201;BME280;9226;47.858;9.594;2022-12-18T07:55:41;96368.28;;;-4.34;79.84
18201;BME280;9226;47.858;9.594;2022-12-18T07:58:07;96369.13;;;-4.33;79.19
18201;BME280;9226;47.858;9.594;2022-12-18T08:00:33;96368.34;;;-4.40;79.38
18201;BME280;9226;47.858;9.594;2022-12-18T08:02:59;96369.38;;;-4.63;79.96
18201;BME280;9226;47.858;9.594;2022-12-18T08:05:25;96370.03;;;-4.36;79.35
18201;BME280;9226;47.858;9.594;2022-12-18T08:07:51;96365.63;;;-4.25;78.97
18201;BME280;9226;47.858;9.594;2022-12-18T08:10:17;96364.72;;;-4.21;79.12
18201;BME280;9226;47.858;9.594;2022-12-18T08:12:42;96358.75;;;-4.29;79.03
18201;BME280;9226;47.858;9.594;2022-12-18T08:15:09;96364.72;;;-4.21;78.96
18201;BME280;9226;47.858;9.594;2022-12-18T08:17:34;96368.97;;;-4.13;78.52
18201;BME280;9226;47.858;9.594;2022-12-18T08:20:00;96369.72;;;-3.99;78.06
18201;BME280;9226;47.858;9.594;2022-12-18T08:22:25;96378.28;;;-3.91;78.00
18201;BME280;9226;47.858;9.594;2022-12-18T08:24:51;96380.84;;;-3.88;77.72
18201;BME280;9226;47.858;9.594;2022-12-18T08:27:17;96373.06;;;-3.88;77.64
18201;BME280;9226;47.858;9.594;2022-12-18T08:29:42;96375.56;;;-3.80;77.60
18201;BME280;9226;47.858;9.594;2022-12-18T08:32:08;96379.06;;;-3.79;77.52
18201;BME280;9226;47.858;9.594;2022-12-18T08:34:33;96378.03;;;-3.66;77.30
18201;BME280;9226;47.858;9.594;2022-12-18T08:36:59;96373.63;;;-3.59;77.12
18201;BME280;9226;47.858;9.594;2022-12-18T08:39:24;96389.97;;;-3.50;76.78
18201;BME280;9226;47.858;9.594;2022-12-18T08:41:50;96376.91;;;-3.42;76.93
18201;BME280;9226;47.858;9.594;2022-12-18T08:44:34;96392.59;;;-3.53;77.27
18201;BME280;9226;47.858;9.594;2022-12-18T08:47:06;96391.50;;;-3.30;76.98
18201;BME280;9226;47.858;9.594;2022-12-18T08:49:33;96393.13;;;-3.23;76.68
18201;BME280;9226;47.858;9.594;2022-12-18T08:51:58;96387.19;;;-3.33;77.22
18201;BME280;9226;47.858;9.594;2022-12-18T08:54:25;96387.91;;;-3.20;77.17
18201;BME280;9226;47.858;9.594;2022-12-18T08:56:50;96391.97;;;-2.99;76.88
18201;BME280;9226;47.858;9.594;2022-12-18T08:59:17;96391.88;;;-2.93;76.69
18201;BME280;9226;47.858;9.594;2022-12-18T09:01:42;96391.72;;;-2.82;75.96
18201;BME280;9226;47.858;9.594;2022-12-18T09:04:09;96395.81;;;-2.62;76.10
18201;BME280;9226;47.858;9.594;2022-12-18T09:06:34;96391.38;;;-2.56;75.83
18201;BME280;9226;47.858;9.594;2022-12-18T09:09:00;96392.09;;;-2.46;75.87
18201;BME280;9226;47.858;9.594;2022-12-18T09:11:27;96390.25;;;-2.38;75.79
18201;BME280;9226;47.858;9.594;2022-12-18T09:13:53;96397.22;;;-2.40;75.20
18201;BME280;9226;47.858;9.594;2022-12-18T09:16:19;96395.06;;;-2.13;74.73
18201;BME280;9226;47.858;9.594;2022-12-18T09:18:45;96388.16;;;-2.14;74.31
18201;BME280;9226;47.858;9.594;2022-12-18T09:21:19;96381.66;;;-2.41;74.12
18201;BME280;9226;47.858;9.594;2022-12-18T09:23:52;96382.41;;;-2.36;74.71
18201;BME280;9226;47.858;9.594;2022-12-18T09:26:19;96377.00;;;-2.21;74.36
18201;BME280;9226;47.858;9.594;2022-12-18T09:28:44;96375.09;;;-2.11;74.19
18201;BME280;9226;47.858;9.594;2022-12-18T09:31:11;96375.94;;;-2.10;73.59
18201;BME280;9226;47.858;9.594;2022-12-18T09:33:37;96371.56;;;-2.05;73.80
18201;BME280;9226;47.858;9.594;2022-12-18T09:36:05;96371.88;;;-1.74;73.70
18201;BME280;9226;47.858;9.594;2022-12-18T09:38:32;96373.59;;;-1.74;73.56
18201;BME280;9226;47.858;9.594;2022-12-18T09:41:03;96381.69;;;-1.90;73.67
18201;BME280;9226;47.858;9.594;2022-12-18T09:43:37;96375.19;;;-1.66;73.25
18201;BME280;9226;47.858;9.594;2022-12-18T09:46:26;96378.28;;;-1.45;72.94
18201;BME280;9226;47.858;9.594;2022-12-18T09:48:56;96373.75;;;-1.35;72.31
18201;BME280;9226;47.858;9.594;2022-12-18T09:51:30;96373.63;;;-1.29;71.75
18201;BME280;9226;47.858;9.594;2022-12-18T09:54:03;96365.50;;;-1.12;72.20
18201;BME280;9226;47.858;9.594;2022-12-18T09:56:34;96366.53;;;-1.21;71.18
18201;BME280;9226;47.858;9.594;2022-12-18T09:59:02;96373.94;;;-1.01;71.38
18201;BME280;9226;47.858;9.594;2022-12-18T10:01:29;96365.16;;;-0.97;70.98
18201;BME280;9226;47.858;9.594;2022-12-18T10:03:55;96371.91;;;-0.86;70.99
18201;BME280;9226;47.858;9.594;2022-12-18T10:17:39;96379.47;;;-0.74;70.21
18201;BME280;9226;47.858;9.594;2022-12-18T10:28:15;96384.06;;;-0.85;69.02
18201;BME280;9226;47.858;9.594;2022-12-18T10:30:43;96388.97;;;-0.73;69.45
18201;BME280;9226;47.858;9.594;2022-12-18T10:33:13;96382.00;;;-0.71;69.50
18201;BME280;9226;47.858;9.594;2022-12-18T10:35:41;96381.25;;;-0.78;69.15
18201;BME280;9226;47.858;9.594;2022-12-18T10:40:47;96386.47;;;-0.78;69.28
18201;BME280;9226;47.858;9.594;2022-12-18T10:43:14;96378.50;;;-0.70;69.20
18201;BME280;9226;47.858;9.594;2022-12-18T10:45:42;96382.66;;;-0.61;69.02
18201;BME280;9226;47.858;9.594;2022-12-18T10:48:23;96376.03;;;-0.37;69.10
18201;BME280;9226;47.858;9.594;2022-12-18T10:50:50;96383.09;;;-0.42;68.11
18201;BME280;9226;47.858;9.594;2022-12-18T10:53:30;96378.41;;;-0.28;68.61
18201;BME280;9226;47.858;9.594;2022-12-18T10:55:58;96381.88;;;-0.27;68.25
18201;BME280;9226;47.858;9.594;2022-12-18T10:58:30;96375.59;;;-0.19;68.03
18201;BME280;9226;47.858;9.594;2022-12-18T11:01:12;96375.53;;;-0.15;68.10
18201;BME280;9226;47.858;9.594;2022-12-18T11:06:16;96370.81;;;-0.37;67.51
18201;BME280;9226;47.858;9.594;2022-12-18T11:08:44;96370.44;;;-0.22;67.39
18201;BME280;9226;47.858;9.594;2022-12-18T11:11:23;96360.38;;;-0.37;67.81
18201;BME280;9226;47.858;9.594;2022-12-18T11:14:17;96372.34;;;-0.28;66.92
18201;BME280;9226;47.858;9.594;2022-12-18T11:16:48;96366.84;;;-0.17;67.42
18201;BME280;9226;47.858;9.594;2022-12-18T11:21:47;96370.94;;;-0.06;67.39
18201;BME280;9226;47.858;9.594;2022-12-18T11:24:34;96378.59;;;0.02;66.82
18201;BME280;9226;47.858;9.594;2022-12-18T11:27:03;96378.63;;;0.01;66.41
18201;BME280;9226;47.858;9.594;2022-12-18T11:29:39;96374.69;;;-0.17;65.85
18201;BME280;9226;47.858;9.594;2022-12-18T11:34:41;96373.81;;;-0.16;66.80
18201;BME280;9226;47.858;9.594;2022-12-18T11:37:09;96375.06;;;-0.33;66.65
18201;BME280;9226;47.858;9.594;2022-12-18T11:39:46;96384.41;;;-0.24;66.47
18201;BME280;9226;47.858;9.594;2022-12-18T11:42:38;96374.53;;;-0.11;66.25
18201;BME280;9226;47.858;9.594;2022-12-18T11:50:32;96348.56;;;-0.52;65.64
18201;BME280;9226;47.858;9.594;2022-12-18T11:52:58;96349.16;;;-0.41;65.71
18201;BME280;9226;47.858;9.594;2022-12-18T11:58:40;96342.63;;;-0.59;65.71
18201;BME280;9226;47.858;9.594;2022-12-18T12:30:22;96315.09;;;-1.11;67.34
18201;BME280;9226;47.858;9.594;2022-12-18T12:33:15;96309.88;;;-1.10;67.79
18201;BME280;9226;47.858;9.594;2022-12-18T12:36:21;96307.16;;;-1.05;67.72
18201;BME280;9226;47.858;9.594;2022-12-18T12:39:05;96307.03;;;-0.99;67.46
18201;BME280;9226;47.858;9.594;2022-12-18T12:41:33;96306.66;;;-0.82;67.21
18201;BME280;9226;47.858;9.594;2022-12-18T12:44:29;96311.16;;;-0.88;66.75
18201;BME280;9226;47.858;9.594;2022-12-18T12:46:59;96317.28;;;-0.91;67.03
18201;BME280;9226;47.858;9.594;2022-12-18T12:49:29;96312.91;;;-0.89;67.65
18201;BME280;9226;47.858;9.594;2022-12-18T12:52:30;96308.59;;;-0.90;67.60
18201;BME280;9226;47.858;9.594;2022-12-18T12:54:59;96298.91;;;-0.85;67.17
18201;BME280;9226;47.858;9.594;2022-12-18T12:57:34;96300.44;;;-1.14;67.37
18201;BME280;9226;47.858;9.594;2022-12-18T13:00:13;96304.91;;;-1.22;67.60
18201;BME280;9226;47.858;9.594;2022-12-18T13:03:07;96304.44;;;-0.99;67.13
18201;BME280;9226;47.858;9.594;2022-12-18T13:05:35;96297.84;;;-1.15;67.57
18201;BME280;9226;47.858;9.594;2022-12-18T13:08:06;96287.50;;;-1.18;68.56
18201;BME280;9226;47.858;9.594;2022-12-18T13:10:35;96293.75;;;-0.86;67.74
18201;BME280;9226;47.858;9.594;2022-12-18T13:13:10;96288.94;;;-1.05;68.00
18201;BME280;9226;47.858;9.594;2022-12-18T13:15:47;96289.91;;;-1.09;67.92
18201;BME280;9226;47.858;9.594;2022-12-18T13:18:21;96289.97;;;-1.12;67.65
18201;BME280;9226;47.858;9.594;2022-12-18T13:20:50;96289.19;;;-1.17;67.92
18201;BME280;9226;47.858;9.594;2022-12-18T13:23:29;96291.63;;;-1.50;68.63
18201;BME280;9226;47.858;9.594;2022-12-18T13:31:10;96314.03;;;-1.01;68.29
18201;BME280;9226;47.858;9.594;2022-12-18T13:36:31;96318.41;;;-1.03;67.89
18201;BME280;9226;47.858;9.594;2022-12-18T13:41:36;96306.81;;;-0.88;67.88
18201;BME280;9226;47.858;9.594;2022-12-18T13:46:53;96304.47;;;-1.00;67.90
18201;BME280;9226;47.858;9.594;2022-12-18T13:51:52;96307.38;;;-1.16;69.16
18201;BME280;9226;47.858;9.594;2022-12-18T13:54:30;96296.31;;;-1.25;69.07
18201;BME280;9226;47.858;9.594;2022-12-18T13:56:58;96296.00;;;-1.10;68.96
18201;BME280;9226;47.858;9.594;2022-12-18T13:59:24;96300.25;;;-1.06;68.65
18201;BME280;9226;47.858;9.594;2022-12-18T14:01:55;96293.44;;;-1.12;68.79
18201;BME280;9226;47.858;9.594;2022-12-18T14:04:44;96293.63;;;-1.21;69.44
18201;BME280;9226;47.858;9.594;2022-12-18T14:07:12;96298.34;;;-0.98;68.70
18201;BME280;9226;47.858;9.594;2022-12-18T14:09:58;96290.78;;;-1.10;68.28
18201;BME280;9226;47.858;9.594;2022-12-18T14:12:33;96300.50;;;-1.17;68.84
18201;BME280;9226;47.858;9.594;2022-12-18T14:17:49;96304.94;;;-1.23;68.88
18201;BME280;9226;47.858;9.594;2022-12-18T14:20:15;96308.44;;;-1.23;69.26
18201;BME280;9226;47.858;9.594;2022-12-18T14:22:47;96309.81;;;-1.49;69.57
18201;BME280;9226;47.858;9.594;2022-12-18T14:25:22;96305.06;;;-1.72;70.13
18201;BME280;9226;47.858;9.594;2022-12-18T14:30:30;96308.88;;;-1.46;70.21
18201;BME280;9226;47.858;9.594;2022-12-18T14:33:21;96309.69;;;-1.44;69.91
18201;BME280;9226;47.858;9.594;2022-12-18T14:36:00;96311.50;;;-1.46;69.80
18201;BME280;9226;47.858;9.594;2022-12-18T14:38:38;96307.00;;;-1.39;69.75
18201;BME280;9226;47.858;9.594;2022-12-18T14:41:12;96313.84;;;-1.34;69.63
18201;BME280;9226;47.858;9.594;2022-12-18T14:43:41;96319.25;;;-1.43;69.96
18201;BME280;9226;47.858;9.594;2022-12-18T14:46:30;96313.84;;;-1.34;69.78
18201;BME280;9226;47.858;9.594;2022-12-18T14:48:59;96314.16;;;-1.49;70.11
18201;BME280;9226;47.858;9.594;2022-12-18T14:51:27;96319.28;;;-1.46;70.00
18201;BME280;9226;47.858;9.594;2022-12-18T14:56:27;96317.78;;;-1.56;69.69
18201;BME280;9226;47.858;9.594;2022-12-18T14:58:59;96316.44;;;-1.79;70.63
18201;BME280;9226;47.858;9.594;2022-12-18T15:01:38;96324.19;;;-1.76;70.41
18201;BME280;9226;47.858;9.594;2022-12-18T15:04:29;96323.22;;;-1.69;70.73
18201;BME280;9226;47.858;9.594;2022-12-18T15:07:14;96329.50;;;-1.82;71.59
18201;BME280;9226;47.858;9.594;2022-12-18T15:10:25;96336.59;;;-1.90;71.56
18201;BME280;9226;47.858;9.594;2022-12-18T15:12:41;96327.88;;;-1.86;71.61
18201;BME280;9226;47.858;9.594;2022-12-18T15:26:08;96341.09;;;-1.98;71.71
18201;BME280;9226;47.858;9.594;2022-12-18T15:29:04;96335.88;;;-1.98;71.27